createdAt,value
2018-04-13T00:01:29.561Z,64.80
2018-04-13T00:03:57.783Z,64.80
2018-04-13T00:06:25.917Z,65.00
2018-04-13T00:08:54.071Z,65.00
2018-04-13T00:11:22.306Z,65.00
2018-04-13T00:13:50.425Z,65.00
2018-04-13T00:16:18.545Z,65.10
2018-04-13T00:18:47.539Z,65.10
2018-04-13T00:21:15.673Z,65.00
2018-04-13T00:23:43.907Z,65.00
2018-04-13T00:26:12.070Z,65.70
2018-04-13T00:28:40.198Z,65.80
2018-04-13T00:31:08.730Z,66.00
2018-04-13T00:33:36.878Z,66.10
2018-04-13T00:36:05.758Z,66.30
2018-04-13T00:38:34.666Z,66.60
2018-04-13T00:41:03.552Z,66.10
2018-04-13T00:43:32.426Z,66.10
2018-04-13T00:46:01.306Z,66.10
2018-04-13T00:48:29.409Z,66.10
2018-04-13T00:50:58.301Z,65.90
2018-04-13T00:53:28.990Z,66.00
2018-04-13T00:55:57.109Z,65.90
2018-04-13T00:58:26.095Z,66.00
2018-04-13T01:00:54.973Z,66.10
2018-04-13T01:03:23.887Z,66.10
2018-04-13T01:05:52.005Z,66.00
2018-04-13T01:08:20.113Z,65.90
2018-04-13T01:10:49.022Z,66.00
2018-04-13T01:13:17.895Z,65.90
2018-04-13T01:15:46.772Z,66.10
2018-04-13T01:18:16.389Z,66.10
2018-04-13T01:20:45.284Z,66.30
2018-04-13T01:23:14.168Z,66.20
2018-04-13T01:25:43.057Z,65.80
2018-04-13T01:28:11.936Z,66.00
2018-04-13T01:30:40.831Z,65.90
2018-04-13T01:33:09.712Z,66.00
2018-04-13T01:35:37.822Z,66.00
2018-04-13T01:38:05.951Z,65.80
2018-04-13T01:40:34.063Z,65.70
2018-04-13T01:43:02.949Z,65.80
2018-04-13T01:45:31.822Z,65.90
2018-04-13T01:48:01.441Z,66.10
2018-04-13T01:50:30.325Z,65.90
2018-04-13T01:52:59.215Z,65.90
2018-04-13T01:55:28.091Z,65.80
2018-04-13T01:57:56.209Z,66.30
2018-04-13T02:00:24.315Z,66.30
2018-04-13T02:02:52.431Z,66.40
2018-04-13T02:05:21.304Z,66.00
2018-04-13T02:07:50.195Z,66.50
2018-04-13T02:10:18.390Z,66.50
2018-04-13T02:12:46.536Z,66.60
2018-04-13T02:15:14.643Z,67.40
2018-04-13T02:17:42.740Z,67.00
2018-04-13T02:20:10.861Z,66.80
2018-04-13T02:22:39.744Z,66.60
2018-04-13T02:25:07.854Z,66.60
2018-04-13T02:27:35.970Z,66.60
2018-04-13T02:30:04.188Z,66.60
2018-04-13T02:32:33.106Z,66.50
2018-04-13T02:35:01.226Z,66.40
2018-04-13T02:37:30.114Z,65.90
2018-04-13T02:39:58.241Z,66.40
2018-04-13T02:42:26.366Z,66.30
2018-04-13T02:44:55.246Z,66.20
2018-04-13T02:47:24.125Z,66.10
2018-04-13T02:49:52.242Z,66.10
2018-04-13T02:52:21.138Z,66.20
2018-04-13T02:54:49.265Z,66.20
2018-04-13T02:57:17.373Z,65.90
2018-04-13T02:59:45.495Z,66.20
2018-04-13T03:02:13.631Z,66.30
2018-04-13T03:04:41.790Z,66.50
2018-04-13T03:07:10.671Z,66.20
2018-04-13T03:09:39.547Z,66.10
2018-04-13T03:12:08.431Z,66.90
2018-04-13T03:14:38.421Z,66.40
2018-04-13T03:17:06.557Z,66.30
2018-04-13T03:22:35.413Z,66.00
2018-04-13T03:25:03.541Z,65.90
2018-04-13T03:27:31.660Z,66.00
2018-04-13T03:29:59.773Z,66.00
2018-04-13T03:32:28.663Z,65.80
2018-04-13T03:34:57.558Z,66.00
2018-04-13T03:37:26.440Z,66.10
2018-04-13T03:39:55.322Z,66.10
2018-04-13T03:42:24.209Z,66.20
2018-04-13T03:44:53.106Z,66.20
2018-04-13T03:47:22.010Z,66.20
2018-04-13T03:49:50.894Z,66.20
2018-04-13T03:52:19.774Z,66.20
2018-04-13T03:54:48.666Z,66.30
2018-04-13T03:57:17.556Z,65.90
2018-04-13T03:59:45.668Z,65.90
2018-04-13T04:02:13.835Z,65.80
2018-04-13T04:04:41.936Z,65.90
2018-04-13T04:07:10.045Z,66.20
2018-04-13T04:09:38.913Z,66.20
2018-04-13T04:12:07.045Z,66.10
2018-04-13T04:14:35.167Z,66.10
2018-04-13T04:17:04.045Z,66.20
2018-04-13T04:19:44.239Z,66.20
2018-04-13T04:22:25.422Z,66.80
2018-04-13T04:27:56.080Z,66.60
2018-04-13T04:30:24.188Z,66.50
2018-04-13T04:32:52.292Z,67.10
2018-04-13T04:35:21.194Z,66.40
2018-04-13T04:37:50.068Z,66.50
2018-04-13T04:40:18.175Z,66.40
2018-04-13T04:42:46.323Z,66.40
2018-04-13T04:45:15.238Z,66.20
2018-04-13T04:47:43.369Z,66.10
2018-04-13T04:50:11.570Z,66.40
2018-04-13T04:52:40.453Z,66.60
2018-04-13T04:55:09.353Z,66.90
2018-04-13T04:57:38.234Z,66.60
2018-04-13T05:00:07.146Z,66.80
2018-04-13T05:02:35.261Z,66.80
2018-04-13T05:05:03.408Z,67.70
2018-04-13T05:07:31.506Z,67.10
2018-04-13T05:09:59.610Z,67.20
2018-04-13T05:12:28.506Z,67.90
2018-04-13T05:14:57.439Z,68.10
2018-04-13T05:17:25.535Z,68.00
2018-04-13T05:19:53.650Z,67.60
2018-04-13T05:22:22.650Z,67.80
2018-04-13T05:24:51.548Z,67.50
2018-04-13T05:27:19.674Z,67.50
2018-04-13T05:29:47.780Z,67.70
2018-04-13T05:32:16.777Z,68.10
2018-04-13T05:34:44.906Z,68.10
2018-04-13T05:37:13.020Z,67.90
2018-04-13T05:39:41.124Z,68.00
2018-04-13T05:42:09.246Z,68.30
2018-04-13T05:44:38.134Z,68.50
2018-04-13T05:47:07.004Z,68.20
2018-04-13T05:49:35.116Z,68.10
2018-04-13T05:52:03.234Z,68.10
2018-04-13T05:54:31.378Z,68.20
2018-04-13T05:56:59.493Z,68.20
2018-04-13T05:59:27.630Z,68.30
2018-04-13T06:01:55.730Z,68.40
2018-04-13T06:04:23.849Z,68.40
2018-04-13T06:06:52.017Z,68.30
2018-04-13T06:09:20.887Z,68.60
2018-04-13T06:11:49.002Z,68.50
2018-04-13T06:14:17.154Z,69.60
2018-04-13T06:16:46.074Z,68.80
2018-04-13T06:19:14.205Z,68.80
2018-04-13T06:21:43.133Z,69.10
2018-04-13T06:24:11.240Z,69.10
2018-04-13T06:26:39.385Z,68.90
2018-04-13T06:29:07.476Z,68.90
2018-04-13T06:31:35.591Z,69.40
2018-04-13T06:34:04.617Z,69.00
2018-04-13T06:36:32.749Z,69.10
2018-04-13T06:39:01.649Z,69.00
2018-04-13T06:41:30.533Z,69.30
2018-04-13T06:43:59.421Z,70.00
2018-04-13T06:46:28.316Z,69.60
2018-04-13T06:48:57.199Z,69.60
2018-04-13T06:51:26.090Z,69.80
2018-04-13T06:53:54.973Z,69.80
2018-04-13T06:56:23.097Z,69.80
2018-04-13T06:58:51.201Z,69.60
2018-04-13T07:01:19.441Z,69.70
2018-04-13T07:03:47.463Z,69.70
2018-04-13T07:06:15.693Z,70.10
2018-04-13T07:08:43.797Z,70.20
2018-04-13T07:11:11.941Z,70.30
2018-04-13T07:13:40.217Z,70.60
2018-04-13T07:16:09.057Z,70.60
2018-04-13T07:18:37.938Z,69.50
2018-04-13T07:21:06.083Z,69.50
2018-04-13T07:23:34.200Z,69.60
2018-04-13T07:26:02.329Z,69.60
2018-04-13T07:28:30.445Z,69.80
2018-04-13T07:30:58.569Z,69.70
2018-04-13T07:33:26.703Z,69.70
2018-04-13T07:35:55.238Z,69.70
2018-04-13T07:38:23.746Z,69.90
2018-04-13T07:40:52.634Z,70.10
2018-04-13T07:43:21.701Z,70.40
2018-04-13T07:45:50.005Z,70.40
2018-04-13T07:48:18.236Z,70.60
2018-04-13T07:50:45.999Z,70.30
2018-04-13T07:53:14.141Z,70.50
2018-04-13T07:55:42.283Z,70.50
2018-04-13T07:58:11.181Z,70.20
2018-04-13T08:00:40.077Z,70.00
2018-04-13T08:03:08.979Z,70.10
2018-04-13T08:05:37.117Z,70.10
2018-04-13T08:08:06.053Z,70.30
2018-04-13T08:10:34.224Z,70.30
2018-04-13T08:13:02.395Z,70.10
2018-04-13T08:15:30.545Z,70.40
2018-04-13T08:17:59.473Z,70.40
2018-04-13T08:20:27.577Z,70.40
2018-04-13T08:22:55.829Z,70.40
2018-04-13T08:25:23.955Z,70.40
2018-04-13T08:27:52.839Z,70.60
2018-04-13T08:30:21.731Z,70.70
2018-04-13T08:32:50.633Z,71.00
2018-04-13T08:35:18.807Z,71.00
2018-04-13T08:37:47.837Z,71.10
2018-04-13T08:40:15.941Z,71.00
2018-04-13T08:42:45.619Z,70.70
2018-04-13T08:45:14.495Z,71.00
2018-04-13T08:47:42.626Z,71.00
2018-04-13T08:50:10.879Z,70.90
2018-04-13T08:52:39.023Z,70.60
2018-04-13T08:55:07.148Z,70.60
2018-04-13T08:57:35.273Z,70.60
2018-04-13T09:00:03.414Z,71.80
2018-04-13T09:02:32.299Z,70.50
2018-04-13T09:05:01.205Z,69.70
2018-04-13T09:07:29.360Z,69.70
2018-04-13T09:09:58.266Z,70.00
2018-04-13T09:12:26.379Z,69.90
2018-04-13T09:14:54.525Z,68.50
2018-04-13T09:17:22.706Z,68.10
2018-04-13T09:19:50.829Z,68.40
2018-04-13T09:22:18.947Z,69.10
2018-04-13T09:24:47.097Z,68.60
2018-04-13T09:27:16.009Z,68.10
2018-04-13T09:29:44.138Z,68.10
2018-04-13T09:32:12.265Z,69.00
2018-04-13T09:34:40.422Z,68.70
2018-04-13T09:37:08.559Z,68.30
2018-04-13T09:39:36.677Z,68.40
2018-04-13T09:42:04.798Z,68.90
2018-04-13T09:44:33.022Z,68.60
2018-04-13T09:47:01.150Z,68.40
2018-04-13T09:49:29.266Z,67.70
2018-04-13T09:51:57.406Z,67.20
2018-04-13T09:54:26.300Z,67.20
2018-04-13T09:56:55.182Z,68.10
2018-04-13T09:59:24.108Z,66.90
2018-04-13T10:01:52.242Z,67.00
2018-04-13T10:04:20.358Z,68.00
2018-04-13T10:06:48.540Z,67.00
2018-04-13T10:09:16.791Z,67.70
2018-04-13T10:11:44.910Z,67.90
2018-04-13T10:14:13.028Z,67.20
2018-04-13T10:16:41.188Z,67.80
2018-04-13T10:19:10.090Z,68.30
2018-04-13T10:21:38.979Z,67.10
2018-04-13T10:24:07.916Z,67.00
2018-04-13T10:26:36.079Z,66.90
2018-04-13T10:29:04.326Z,66.60
2018-04-13T10:31:32.470Z,66.20
2018-04-13T10:34:00.616Z,66.00
2018-04-13T10:36:28.764Z,65.30
2018-04-13T10:38:56.894Z,66.10
2018-04-13T10:41:25.018Z,65.30
2018-04-13T10:43:53.138Z,66.10
2018-04-13T10:46:21.274Z,66.20
2018-04-13T10:48:49.430Z,65.00
2018-04-13T10:51:17.611Z,63.80
2018-04-13T10:53:45.721Z,63.50
2018-04-13T10:56:13.897Z,64.80
2018-04-13T10:58:43.545Z,64.60
2018-04-13T11:01:11.671Z,64.50
2018-04-13T11:03:39.787Z,64.00
2018-04-13T11:06:07.928Z,63.60
2018-04-13T11:08:36.085Z,64.20
2018-04-13T11:11:04.205Z,64.70
2018-04-13T11:13:32.375Z,62.30
2018-04-13T11:16:01.517Z,63.20
2018-04-13T11:18:29.639Z,63.20
2018-04-13T11:20:58.523Z,61.70
2018-04-13T11:23:27.399Z,61.40
2018-04-13T11:25:55.558Z,61.40
2018-04-13T11:28:23.774Z,62.50
2018-04-13T11:30:51.909Z,60.40
2018-04-13T11:33:20.106Z,61.20
2018-04-13T11:35:48.232Z,61.40
2018-04-13T11:38:16.670Z,61.70
2018-04-13T11:40:45.573Z,62.60
2018-04-13T11:43:13.767Z,62.60
2018-04-13T11:45:41.889Z,63.00
2018-04-13T11:48:10.790Z,64.20
2018-04-13T11:50:39.681Z,62.30
2018-04-13T11:53:08.571Z,61.90
2018-04-13T11:55:37.489Z,62.10
2018-04-13T11:58:05.675Z,62.10
2018-04-13T12:00:33.827Z,61.90
2018-04-13T12:03:01.953Z,61.90
2018-04-13T12:05:30.197Z,62.00
2018-04-13T12:07:58.331Z,62.70
2018-04-13T12:10:27.264Z,61.70
2018-04-13T12:12:55.503Z,61.70
2018-04-13T12:15:24.431Z,62.40
2018-04-13T12:17:53.396Z,62.40
2018-04-13T12:20:21.608Z,62.60
2018-04-13T12:22:49.853Z,62.60
2018-04-13T12:25:18.020Z,63.00
2018-04-13T12:27:46.224Z,62.70
2018-04-13T12:30:14.336Z,61.60
2018-04-13T12:32:42.453Z,61.60
2018-04-13T12:35:10.642Z,61.40
2018-04-13T12:37:38.807Z,60.40
2018-04-13T12:40:07.018Z,60.70
2018-04-13T12:42:35.138Z,60.00
2018-04-13T12:45:03.298Z,60.00
2018-04-13T12:47:32.220Z,60.10
2018-04-13T12:50:00.378Z,60.00
2018-04-13T12:52:28.514Z,59.60
2018-04-13T12:54:56.912Z,59.40
2018-04-13T12:57:24.882Z,60.30
2018-04-13T12:59:53.782Z,59.50
2018-04-13T13:02:22.676Z,58.90
2018-04-13T13:04:50.818Z,59.00
2018-04-13T13:07:18.983Z,58.50
2018-04-13T13:09:47.134Z,58.60
2018-04-13T13:12:15.272Z,58.70
2018-04-13T13:14:43.378Z,59.30
2018-04-13T13:17:11.510Z,59.10
2018-04-13T13:19:40.397Z,58.30
2018-04-13T13:22:09.285Z,59.30
2018-04-13T13:24:38.169Z,59.90
2018-04-13T13:27:07.190Z,60.10
2018-04-13T13:29:35.460Z,60.10
2018-04-13T13:32:03.614Z,59.10
2018-04-13T13:34:32.498Z,58.90
2018-04-13T13:37:01.556Z,59.00
2018-04-13T13:39:29.675Z,58.90
2018-04-13T13:41:58.628Z,59.30
2018-04-13T13:44:26.735Z,59.30
2018-04-13T13:46:55.658Z,59.30
2018-04-13T13:49:23.773Z,59.20
2018-04-13T13:51:51.942Z,59.00
2018-04-13T13:54:20.065Z,58.80
2018-04-13T13:56:48.198Z,58.90
2018-04-13T13:59:16.362Z,59.20
2018-04-13T14:01:44.498Z,58.70
2018-04-13T14:04:12.620Z,56.80
2018-04-13T14:06:40.826Z,57.30
2018-04-13T14:09:09.746Z,57.80
2018-04-13T14:11:38.025Z,57.80
2018-04-13T14:14:06.172Z,56.20
2018-04-13T14:16:34.341Z,55.60
2018-04-13T14:19:03.277Z,56.40
2018-04-13T14:21:32.151Z,56.60
2018-04-13T14:24:00.329Z,56.60
2018-04-13T14:26:28.433Z,57.50
2018-04-13T14:28:56.579Z,56.00
2018-04-13T14:31:24.761Z,57.10
2018-04-13T14:33:52.918Z,56.50
2018-04-13T14:36:21.030Z,55.40
2018-04-13T14:38:49.181Z,56.60
2018-04-13T14:41:17.349Z,56.60
2018-04-13T14:43:45.492Z,56.40
2018-04-13T14:46:13.661Z,55.60
2018-04-13T14:48:41.786Z,56.20
2018-04-13T14:51:09.919Z,56.00
2018-04-13T14:53:38.105Z,55.80
2018-04-13T14:56:06.201Z,56.20
2018-04-13T14:58:34.327Z,56.20
2018-04-13T15:01:02.471Z,56.60
2018-04-13T15:03:30.580Z,55.90
2018-04-13T15:05:58.736Z,55.40
2018-04-13T15:08:27.657Z,56.60
2018-04-13T15:10:55.817Z,56.50
2018-04-13T15:13:23.929Z,56.60
2018-04-13T15:15:52.039Z,56.10
2018-04-13T15:18:20.937Z,56.80
2018-04-13T15:20:49.863Z,56.60
2018-04-13T15:23:17.983Z,56.50
2018-04-13T15:25:46.115Z,56.30
2018-04-13T15:28:14.240Z,56.20
2018-04-13T15:30:43.123Z,56.70
2018-04-13T15:33:12.046Z,56.30
2018-04-13T15:35:40.205Z,55.70
2018-04-13T15:38:09.072Z,55.90
2018-04-13T15:40:38.007Z,56.60
2018-04-13T15:43:06.124Z,56.70
2018-04-13T15:45:34.255Z,56.50
2018-04-13T15:48:02.377Z,56.50
2018-04-13T15:50:30.499Z,55.80
2018-04-13T15:52:58.621Z,55.60
2018-04-13T15:55:26.780Z,54.50
2018-04-13T15:57:54.924Z,53.10
2018-04-13T16:00:23.091Z,53.20
2018-04-13T16:02:52.070Z,54.20
2018-04-13T16:05:20.274Z,54.10
2018-04-13T16:07:48.364Z,53.40
2018-04-13T16:10:16.514Z,53.50
2018-04-13T16:12:44.680Z,54.20
2018-04-13T16:15:12.794Z,54.30
2018-04-13T16:17:40.924Z,54.40
2018-04-13T16:20:09.088Z,54.30
2018-04-13T16:22:37.775Z,54.30
2018-04-13T16:25:05.880Z,54.80
2018-04-13T16:27:33.992Z,55.00
2018-04-13T16:30:02.938Z,54.00
2018-04-13T16:32:31.057Z,54.00
2018-04-13T16:34:59.956Z,54.30
2018-04-13T16:37:28.853Z,54.30
2018-04-13T16:39:57.032Z,54.30
2018-04-13T16:42:25.170Z,53.70
2018-04-13T16:44:53.302Z,54.20
2018-04-13T16:47:21.414Z,53.80
2018-04-13T16:49:49.554Z,54.30
2018-04-13T16:52:17.679Z,54.20
2018-04-13T16:54:46.612Z,54.40
2018-04-13T16:57:14.762Z,54.40
2018-04-13T16:59:42.926Z,53.60
2018-04-13T17:02:11.853Z,54.40
2018-04-13T17:04:40.296Z,54.40
2018-04-13T17:07:09.193Z,53.50
2018-04-13T17:09:37.310Z,53.50
2018-04-13T17:12:05.444Z,53.80
2018-04-13T17:14:33.570Z,54.60
2018-04-13T17:17:01.690Z,53.90
2018-04-13T17:19:29.866Z,53.70
2018-04-13T17:21:58.015Z,54.30
2018-04-13T17:24:26.940Z,55.00
2018-04-13T17:26:55.065Z,55.00
2018-04-13T17:29:23.239Z,55.20
2018-04-13T17:31:51.341Z,55.20
2018-04-13T17:34:19.514Z,54.70
2018-04-13T17:36:48.450Z,55.20
2018-04-13T17:39:16.577Z,55.20
2018-04-13T17:41:45.563Z,55.10
2018-04-13T17:44:13.711Z,55.10
2018-04-13T17:46:41.825Z,54.70
2018-04-13T17:49:09.961Z,54.80
2018-04-13T17:51:38.106Z,55.00
2018-04-13T17:54:06.263Z,55.40
2018-04-13T17:56:34.384Z,55.20
2018-04-13T17:59:02.542Z,55.30
2018-04-13T18:01:30.759Z,55.50
2018-04-13T18:03:58.936Z,55.70
2018-04-13T18:06:27.051Z,55.90
2018-04-13T18:08:55.223Z,55.90
2018-04-13T18:11:23.338Z,55.80
2018-04-13T18:13:52.235Z,55.90
2018-04-13T18:16:21.163Z,55.90
2018-04-13T18:18:49.255Z,55.90
2018-04-13T18:21:17.434Z,55.90
2018-04-13T18:23:45.585Z,55.80
2018-04-13T18:26:13.694Z,55.60
2018-04-13T18:28:41.840Z,55.70
2018-04-13T18:31:09.986Z,55.70
2018-04-13T18:33:38.150Z,55.80
2018-04-13T18:36:06.298Z,55.80
2018-04-13T18:38:35.210Z,56.00
2018-04-13T18:41:03.343Z,56.00
2018-04-13T18:43:31.578Z,55.90
2018-04-13T18:45:59.726Z,56.00
2018-04-13T18:48:27.822Z,55.80
2018-04-13T18:50:55.978Z,55.70
2018-04-13T18:53:24.121Z,55.80
2018-04-13T18:55:52.242Z,55.90
2018-04-13T18:58:20.431Z,55.90
2018-04-13T19:00:49.274Z,55.80
2018-04-13T19:03:18.182Z,56.70
2018-04-13T19:05:46.319Z,56.10
2018-04-13T19:08:14.537Z,56.00
2018-04-13T19:10:42.687Z,56.10
2018-04-13T19:13:11.603Z,56.00
2018-04-13T19:15:39.744Z,56.10
2018-04-13T19:18:08.625Z,56.40
2018-04-13T19:20:36.773Z,56.30
2018-04-13T19:23:04.943Z,56.30
2018-04-13T19:25:33.088Z,56.10
2018-04-13T19:28:01.349Z,56.40
2018-04-13T19:30:29.491Z,56.30
2018-04-13T19:32:57.636Z,56.20
2018-04-13T19:35:25.767Z,56.20
2018-04-13T19:37:54.662Z,56.20
2018-04-13T19:40:22.797Z,56.10
2018-04-13T19:42:50.943Z,56.20
2018-04-13T19:45:19.165Z,56.50
2018-04-13T19:47:47.242Z,56.50
2018-04-13T19:50:16.146Z,56.50
2018-04-13T19:52:44.277Z,56.50
2018-04-13T19:55:12.422Z,56.50
2018-04-13T19:57:40.592Z,56.50
2018-04-13T20:00:08.737Z,56.60
2018-04-13T20:02:36.891Z,56.80
2018-04-13T20:05:05.842Z,56.80
2018-04-13T20:07:33.957Z,56.80
2018-04-13T20:10:02.891Z,56.80
2018-04-13T20:12:31.041Z,56.80
2018-04-13T20:14:59.934Z,57.00
2018-04-13T20:17:28.055Z,57.00
2018-04-13T20:19:56.275Z,56.90
2018-04-13T20:22:25.165Z,56.80
2018-04-13T20:24:54.062Z,57.00
2018-04-13T20:27:22.242Z,56.90
2018-04-13T20:29:50.330Z,56.90
2018-04-13T20:32:18.482Z,57.50
2018-04-13T20:34:46.615Z,57.10
2018-04-13T20:37:14.828Z,57.10
2018-04-13T20:39:43.010Z,56.90
2018-04-13T20:42:11.142Z,57.00
2018-04-13T20:44:39.359Z,56.90
2018-04-13T20:47:07.530Z,56.80
2018-04-13T20:49:35.650Z,57.30
2018-04-13T20:52:04.618Z,57.50
2018-04-13T20:54:32.748Z,57.50
2018-04-13T20:57:01.648Z,57.50
2018-04-13T20:59:30.537Z,57.50
2018-04-13T21:01:58.691Z,57.50
2018-04-13T21:04:26.817Z,57.50
2018-04-13T21:06:54.961Z,57.40
2018-04-13T21:09:23.088Z,57.70
2018-04-13T21:11:51.209Z,58.70
2018-04-13T21:14:19.390Z,59.10
2018-04-13T21:16:47.539Z,59.20
2018-04-13T21:19:16.442Z,58.70
2018-04-13T21:21:44.611Z,58.70
2018-04-13T21:24:13.543Z,60.60
2018-04-13T21:26:41.685Z,60.50
2018-04-13T21:29:09.818Z,61.40
2018-04-13T21:31:38.701Z,60.30
2018-04-13T21:34:06.831Z,60.30
2018-04-13T21:36:34.965Z,60.70
2018-04-13T21:39:03.122Z,61.30
2018-04-13T21:41:31.249Z,61.10
2018-04-13T21:44:00.176Z,60.50
2018-04-13T21:46:28.314Z,60.50
2018-04-13T21:48:56.455Z,61.30
2018-04-13T21:51:25.336Z,60.70
2018-04-13T21:53:53.469Z,60.70
2018-04-13T21:56:21.593Z,60.60
2018-04-13T21:58:50.517Z,60.00
2018-04-13T22:01:18.649Z,60.00
2018-04-13T22:03:47.537Z,60.80
2018-04-13T22:06:16.557Z,60.50
2018-04-13T22:08:44.685Z,60.40
2018-04-13T22:11:12.797Z,60.40
2018-04-13T22:13:45.821Z,61.50
2018-04-13T22:16:13.966Z,61.60
2018-04-13T22:18:42.094Z,61.50
2018-04-13T22:21:10.248Z,61.90
2018-04-13T22:23:38.482Z,61.10
2018-04-13T22:26:06.612Z,61.10
2018-04-13T22:28:34.736Z,61.10
2018-04-13T22:31:02.858Z,61.40
2018-04-13T22:33:32.504Z,62.90
2018-04-13T22:36:00.687Z,62.80
2018-04-13T22:38:28.809Z,62.90
2018-04-13T22:40:56.943Z,62.80
2018-04-13T22:43:25.070Z,63.10
2018-04-13T22:45:53.969Z,63.80
2018-04-13T22:48:22.872Z,63.60
2018-04-13T22:50:51.764Z,62.70
2018-04-13T22:53:20.662Z,62.30
2018-04-13T22:55:48.841Z,62.30
2018-04-13T22:58:17.058Z,62.10
2018-04-13T23:00:45.192Z,61.90
2018-04-13T23:03:13.316Z,62.00
2018-04-13T23:05:43.010Z,62.30
2018-04-13T23:08:11.135Z,62.30
2018-04-13T23:10:39.265Z,62.20
2018-04-13T23:13:07.383Z,62.30
2018-04-13T23:15:35.511Z,62.40
2018-04-13T23:18:03.737Z,63.10
2018-04-13T23:20:31.866Z,63.30
2018-04-13T23:23:00.003Z,63.40
2018-04-13T23:25:28.124Z,63.30
2018-04-13T23:27:57.162Z,63.30
2018-04-13T23:30:25.278Z,63.30
2018-04-13T23:32:54.165Z,63.50
2018-04-13T23:35:23.071Z,64.20
2018-04-13T23:37:51.973Z,64.40
2018-04-13T23:40:20.852Z,64.10
2018-04-13T23:42:48.982Z,64.00
2018-04-13T23:45:17.126Z,64.80
2018-04-13T23:47:45.274Z,65.30
2018-04-13T23:50:14.166Z,64.50
2018-04-13T23:52:43.050Z,64.20
2018-04-13T23:55:11.958Z,64.40
2018-04-13T23:57:40.952Z,65.10
